Terminal Aerodrome Forecast
Issued by NWS

Home | Current Version | Previous Version | Graphics & Text | Print | Product List | Glossary On
Versions: 1 2 3 4 5 6 7 8 9 10 11 12 13
934
FTUS42 KMHX 302322
TAFISO
TAF
KISO 302322Z 0100/0124 20010G21KT P6SM SCT020 BKN035
      TEMPO 0104/0108 VRB35KT 4SM SHRA BKN015
     FM010800 25011KT P6SM BKN030
     FM011400 30008KT P6SM SCT250
      AMD LTD TO VIS AND WIND=

USA.gov is the U.S. government's official web portal to all federal, state and local government web resources and services.